Time;durP1;ratioP1;P1;durP2;ratioP2;P2;SDS_P1;SDS_P2;PMS_P1;PMS_P2;Temp;Humidity;BMP_temperature;BMP_pressure;BME280_temperature;BME280_humidity;BME280_pressure;Samples;Min_cycle;Max_cycle;Signal;HPM_P1;HPM_P2
2023/01/10 00:01:47;;;;;;;18.02;10.70;;;;;;;;;;5035281;28;20032;-78
2023/01/10 00:04:13;;;;;;;17.27;10.20;;;;;;;;;;5045719;28;20033;-78
2023/01/10 00:06:39;;;;;;;16.30;9.68;;;;;;;;;;5044859;28;20100;-78
2023/01/10 00:09:05;;;;;;;19.38;8.68;;;;;;;;;;5046436;28;20112;-78
2023/01/10 00:14:23;;;;;;;18.60;8.30;;;;;;;;;;5015234;28;20412;-78
2023/01/10 00:16:49;;;;;;;17.88;9.93;;;;;;;;;;5041884;28;20061;-78
2023/01/10 00:19:15;;;;;;;18.92;10.18;;;;;;;;;;5041238;28;20086;-78
2023/01/10 00:21:41;;;;;;;18.52;10.95;;;;;;;;;;5031628;28;20434;-78
2023/01/10 00:24:16;;;;;;;15.63;9.07;;;;;;;;;;5045205;28;20044;-78
2023/01/10 00:26:42;;;;;;;12.77;8.30;;;;;;;;;;5043658;28;20021;-78
2023/01/10 00:29:08;;;;;;;16.58;8.45;;;;;;;;;;5041031;28;20040;-78
2023/01/10 00:31:34;;;;;;;12.73;7.78;;;;;;;;;;5038807;28;20033;-78
2023/01/10 00:34:00;;;;;;;16.83;10.65;;;;;;;;;;5038620;28;20142;-78
2023/01/10 00:36:26;;;;;;;17.15;11.27;;;;;;;;;;5034559;28;20045;-77
2023/01/10 00:38:52;;;;;;;18.58;14.07;;;;;;;;;;5038011;28;20035;-78
2023/01/10 00:44:05;;;;;;;18.23;12.30;;;;;;;;;;5036222;28;20399;-77
2023/01/10 00:46:31;;;;;;;16.02;9.90;;;;;;;;;;5035845;28;20044;-77
2023/01/10 00:48:57;;;;;;;15.02;9.57;;;;;;;;;;5050358;28;20032;-77
2023/01/10 00:51:23;;;;;;;16.27;10.23;;;;;;;;;;5051791;28;20686;-77
2023/01/10 00:53:49;;;;;;;20.92;11.98;;;;;;;;;;5047098;28;20025;-78
2023/01/10 00:56:16;;;;;;;19.33;11.93;;;;;;;;;;5052807;28;20037;-77
2023/01/10 00:58:43;;;;;;;17.02;11.55;;;;;;;;;;5050940;28;20043;-77
2023/01/10 01:01:09;;;;;;;15.52;10.50;;;;;;;;;;5049957;28;20032;-77
2023/01/10 01:03:35;;;;;;;14.45;9.63;;;;;;;;;;5046472;28;20033;-77
2023/01/10 01:06:05;;;;;;;14.25;7.88;;;;;;;;;;5048271;28;20853;-77
2023/01/10 01:08:31;;;;;;;14.00;7.18;;;;;;;;;;5044781;28;20041;-77
2023/01/10 01:10:57;;;;;;;12.88;7.40;;;;;;;;;;5047966;28;20110;-77
2023/01/10 01:13:24;;;;;;;13.18;6.63;;;;;;;;;;5045190;28;20476;-77
2023/01/10 01:15:50;;;;;;;13.27;6.03;;;;;;;;;;5044954;28;20128;-77
2023/01/10 01:18:18;;;;;;;12.75;7.75;;;;;;;;;;5050418;28;20029;-77
2023/01/10 01:20:47;;;;;;;12.15;8.18;;;;;;;;;;5051943;28;20024;-77
2023/01/10 01:23:13;;;;;;;13.15;6.57;;;;;;;;;;5041290;28;20491;-77
2023/01/10 01:25:39;;;;;;;12.25;6.93;;;;;;;;;;5051200;28;20033;-77
2023/01/10 01:28:06;;;;;;;11.50;6.97;;;;;;;;;;5051271;28;20040;-78
2023/01/10 01:30:32;;;;;;;13.98;7.10;;;;;;;;;;5051481;28;20112;-77
2023/01/10 01:32:58;;;;;;;13.40;7.38;;;;;;;;;;5043278;28;20041;-77
2023/01/10 01:35:24;;;;;;;13.80;7.00;;;;;;;;;;5048928;28;20075;-77
2023/01/10 01:37:51;;;;;;;12.77;6.55;;;;;;;;;;5049472;28;20074;-77
2023/01/10 01:40:17;;;;;;;14.05;8.07;;;;;;;;;;5038474;28;20049;-77
2023/01/10 01:42:44;;;;;;;14.38;8.43;;;;;;;;;;5042875;28;20079;-78
2023/01/10 01:45:13;;;;;;;13.48;6.35;;;;;;;;;;5050940;28;20056;-77
2023/01/10 01:47:44;;;;;;;11.90;5.43;;;;;;;;;;5047887;28;20075;-77
2023/01/10 01:50:22;;;;;;;13.38;6.88;;;;;;;;;;5033190;28;20021;-77
2023/01/10 01:52:50;;;;;;;12.00;6.45;;;;;;;;;;5042912;28;20400;-77
2023/01/10 01:55:16;;;;;;;12.10;7.28;;;;;;;;;;5051800;28;20464;-77
2023/01/10 01:57:44;;;;;;;12.77;5.10;;;;;;;;;;5045636;28;20037;-77
2023/01/10 02:00:11;;;;;;;12.23;5.50;;;;;;;;;;5046579;28;20032;-77
2023/01/10 02:02:41;;;;;;;11.85;5.50;;;;;;;;;;5042411;28;20496;-78
2023/01/10 02:05:11;;;;;;;10.23;5.63;;;;;;;;;;5043804;28;20033;-78
2023/01/10 02:07:38;;;;;;;12.20;4.55;;;;;;;;;;5037819;28;20033;-77
2023/01/10 02:10:10;;;;;;;12.30;4.20;;;;;;;;;;5042220;28;20539;-77
2023/01/10 02:12:37;;;;;;;11.52;5.43;;;;;;;;;;5040088;28;20120;-77
2023/01/10 02:15:03;;;;;;;11.38;5.50;;;;;;;;;;5044148;28;20059;-77
2023/01/10 02:17:29;;;;;;;9.73;5.13;;;;;;;;;;5035271;28;20037;-77
2023/01/10 02:20:02;;;;;;;9.80;4.22;;;;;;;;;;5048889;28;20039;-77
2023/01/10 02:22:32;;;;;;;9.82;4.30;;;;;;;;;;5046903;28;20080;-77
2023/01/10 02:24:58;;;;;;;11.65;4.15;;;;;;;;;;5045430;28;20025;-77
2023/01/10 02:27:47;;;;;;;9.10;4.28;;;;;;;;;;5036467;28;20037;-77
2023/01/10 02:30:32;;;;;;;11.88;5.32;;;;;;;;;;5047217;28;20041;-77
2023/01/10 02:33:16;;;;;;;12.80;4.88;;;;;;;;;;5044770;28;20148;-77
2023/01/10 02:35:57;;;;;;;11.35;5.82;;;;;;;;;;5049740;28;20032;-77
2023/01/10 02:38:30;;;;;;;15.73;9.45;;;;;;;;;;5050688;28;20036;-77
2023/01/10 02:41:08;;;;;;;15.35;6.97;;;;;;;;;;5040240;28;20082;-77
2023/01/10 02:43:37;;;;;;;18.15;9.55;;;;;;;;;;5037462;28;20029;-77
2023/01/10 02:46:08;;;;;;;15.10;8.43;;;;;;;;;;5050352;28;20030;-77
2023/01/10 02:48:34;;;;;;;15.05;7.50;;;;;;;;;;5050038;28;20067;-77
2023/01/10 02:51:09;;;;;;;16.42;9.05;;;;;;;;;;5051092;28;20479;-77
2023/01/10 02:53:41;;;;;;;14.52;8.98;;;;;;;;;;5041737;28;20033;-77
2023/01/10 02:56:22;;;;;;;19.70;11.25;;;;;;;;;;5037731;28;20072;-77
2023/01/10 02:59:07;;;;;;;19.08;8.85;;;;;;;;;;5047066;28;20029;-77
2023/01/10 03:01:36;;;;;;;18.63;9.32;;;;;;;;;;5021535;28;20091;-78
2023/01/10 03:04:08;;;;;;;10.65;5.28;;;;;;;;;;5031294;28;20377;-77
2023/01/10 03:06:41;;;;;;;12.07;5.55;;;;;;;;;;5039891;28;20033;-77
2023/01/10 03:09:15;;;;;;;13.25;5.38;;;;;;;;;;5038939;28;20116;-77
2023/01/10 03:11:43;;;;;;;10.02;3.65;;;;;;;;;;5035440;28;20551;-77
2023/01/10 03:14:15;;;;;;;15.90;3.30;;;;;;;;;;5030504;28;20065;-77
2023/01/10 03:16:43;;;;;;;19.13;9.18;;;;;;;;;;5040645;28;20107;-77
2023/01/10 03:19:14;;;;;;;14.98;6.25;;;;;;;;;;5040284;28;20033;-77
2023/01/10 03:21:41;;;;;;;21.08;8.52;;;;;;;;;;5040539;28;20061;-78
2023/01/10 03:24:09;;;;;;;40.58;18.77;;;;;;;;;;5042054;28;20034;-77
2023/01/10 03:26:43;;;;;;;19.10;7.88;;;;;;;;;;5040066;28;20033;-77
2023/01/10 03:29:11;;;;;;;12.40;4.68;;;;;;;;;;5034389;28;20036;-78
2023/01/10 03:31:40;;;;;;;8.15;3.22;;;;;;;;;;5049589;28;20037;-77
2023/01/10 03:34:06;;;;;;;9.43;3.03;;;;;;;;;;5049779;28;20040;-77
2023/01/10 03:36:36;;;;;;;8.75;2.00;;;;;;;;;;5049236;28;20041;-77
2023/01/10 03:39:11;;;;;;;9.02;2.80;;;;;;;;;;5033927;28;20120;-77
2023/01/10 03:41:40;;;;;;;15.88;6.45;;;;;;;;;;5040187;28;20029;-77
2023/01/10 03:47:20;;;;;;;19.40;4.78;;;;;;;;;;5041152;28;20506;-77
2023/01/10 03:49:47;;;;;;;10.93;3.83;;;;;;;;;;5038639;28;20080;-77
2023/01/10 03:52:15;;;;;;;10.80;3.95;;;;;;;;;;5040597;28;20048;-77
2023/01/10 03:54:44;;;;;;;11.02;2.17;;;;;;;;;;5039033;28;20083;-77
2023/01/10 03:57:37;;;;;;;9.27;2.35;;;;;;;;;;5045252;28;20035;-77
2023/01/10 04:00:05;;;;;;;8.10;2.03;;;;;;;;;;5047062;28;20052;-77
2023/01/10 04:02:31;;;;;;;8.90;2.20;;;;;;;;;;5044633;28;20041;-78
2023/01/10 04:04:58;;;;;;;8.18;2.80;;;;;;;;;;5033665;28;20087;-78
2023/01/10 04:07:24;;;;;;;9.50;2.38;;;;;;;;;;5043766;28;20036;-78
2023/01/10 04:09:50;;;;;;;10.65;2.47;;;;;;;;;;5046127;28;20048;-77
2023/01/10 04:12:16;;;;;;;9.38;1.90;;;;;;;;;;5040288;28;20039;-77
2023/01/10 04:14:45;;;;;;;53.08;23.88;;;;;;;;;;5046214;28;20037;-77
2023/01/10 04:17:12;;;;;;;44.25;18.65;;;;;;;;;;5046897;28;20060;-77
2023/01/10 04:19:38;;;;;;;99.55;41.20;;;;;;;;;;5046884;28;20056;-77
2023/01/10 04:22:07;;;;;;;96.10;43.67;;;;;;;;;;5044858;28;20037;-77
2023/01/10 04:24:33;;;;;;;85.45;38.42;;;;;;;;;;5038170;28;20040;-77
2023/01/10 04:26:59;;;;;;;73.10;33.88;;;;;;;;;;5037932;28;20163;-78
2023/01/10 04:29:26;;;;;;;36.53;16.65;;;;;;;;;;5026955;28;20064;-77
2023/01/10 04:31:52;;;;;;;28.17;12.32;;;;;;;;;;5039680;28;20117;-77
2023/01/10 04:34:21;;;;;;;23.60;9.50;;;;;;;;;;5041448;28;20365;-77
2023/01/10 04:36:47;;;;;;;12.60;6.47;;;;;;;;;;5049069;28;20033;-78
2023/01/10 04:39:13;;;;;;;10.52;4.97;;;;;;;;;;5041807;28;20029;-77
2023/01/10 04:41:39;;;;;;;13.02;4.53;;;;;;;;;;5044563;28;20032;-78
2023/01/10 04:44:05;;;;;;;11.88;3.40;;;;;;;;;;5038043;28;20029;-78
2023/01/10 04:46:31;;;;;;;12.85;5.15;;;;;;;;;;5048539;28;20856;-77
2023/01/10 04:48:58;;;;;;;13.10;6.63;;;;;;;;;;5016588;28;20022;-77
2023/01/10 04:51:24;;;;;;;13.13;4.20;;;;;;;;;;5044969;28;20391;-77
2023/01/10 04:53:50;;;;;;;10.98;3.75;;;;;;;;;;5049267;28;20025;-77
2023/01/10 04:56:19;;;;;;;9.75;2.55;;;;;;;;;;5044389;28;20092;-77
2023/01/10 04:58:45;;;;;;;6.63;2.58;;;;;;;;;;5046877;28;20727;-77
2023/01/10 05:01:15;;;;;;;8.95;3.22;;;;;;;;;;5047029;28;20072;-77
2023/01/10 05:03:41;;;;;;;9.20;2.83;;;;;;;;;;5041285;28;20260;-77
2023/01/10 05:06:07;;;;;;;8.98;3.20;;;;;;;;;;5035015;28;20028;-77
2023/01/10 05:08:33;;;;;;;10.38;2.95;;;;;;;;;;5039328;28;20045;-78
2023/01/10 05:10:59;;;;;;;9.18;2.45;;;;;;;;;;5045485;28;20041;-77
2023/01/10 05:13:25;;;;;;;10.20;2.00;;;;;;;;;;5043284;28;20037;-77
2023/01/10 05:15:56;;;;;;;11.05;3.22;;;;;;;;;;5042263;28;20454;-77
2023/01/10 05:18:22;;;;;;;17.33;9.02;;;;;;;;;;5042637;28;20108;-78
2023/01/10 05:20:48;;;;;;;42.88;20.95;;;;;;;;;;5032988;28;20516;-77
2023/01/10 05:23:14;;;;;;;14.38;5.97;;;;;;;;;;5041241;28;20053;-77
2023/01/10 05:25:40;;;;;;;12.02;3.72;;;;;;;;;;5038144;28;20036;-77
2023/01/10 05:28:06;;;;;;;11.80;4.28;;;;;;;;;;5043752;28;20112;-77
2023/01/10 05:30:32;;;;;;;11.57;3.15;;;;;;;;;;5038505;28;20037;-77
2023/01/10 05:32:58;;;;;;;11.57;3.22;;;;;;;;;;5039167;28;20033;-77
2023/01/10 05:35:24;;;;;;;13.15;3.78;;;;;;;;;;5048721;28;20040;-77
2023/01/10 05:37:51;;;;;;;16.25;5.60;;;;;;;;;;5050277;28;20108;-77
2023/01/10 05:40:17;;;;;;;14.35;6.00;;;;;;;;;;5042658;28;20033;-77
2023/01/10 05:42:43;;;;;;;16.20;6.72;;;;;;;;;;5024699;28;20034;-77
2023/01/10 05:45:09;;;;;;;14.90;6.20;;;;;;;;;;5038465;28;20135;-77
2023/01/10 05:47:35;;;;;;;21.60;5.57;;;;;;;;;;5048611;28;20084;-77
2023/01/10 05:50:01;;;;;;;10.52;5.60;;;;;;;;;;5047236;28;20040;-77
2023/01/10 05:52:27;;;;;;;11.82;4.38;;;;;;;;;;5044421;28;20115;-77
2023/01/10 05:54:53;;;;;;;14.48;4.70;;;;;;;;;;5048006;28;20080;-77
2023/01/10 05:57:20;;;;;;;12.32;5.78;;;;;;;;;;5045829;28;20053;-77
2023/01/10 05:59:46;;;;;;;14.48;5.45;;;;;;;;;;5042733;28;20026;-77
2023/01/10 06:02:13;;;;;;;13.07;4.10;;;;;;;;;;5044110;28;20673;-76
2023/01/10 06:04:39;;;;;;;13.70;4.80;;;;;;;;;;5051591;28;20044;-77
2023/01/10 06:07:04;;;;;;;10.15;4.85;;;;;;;;;;5048898;28;20041;-77
2023/01/10 06:09:31;;;;;;;12.23;5.95;;;;;;;;;;5050833;28;20104;-78
2023/01/10 06:11:57;;;;;;;12.40;6.10;;;;;;;;;;5043048;28;20108;-77
2023/01/10 06:14:23;;;;;;;15.70;5.22;;;;;;;;;;5051681;28;20119;-77
2023/01/10 06:16:49;;;;;;;9.93;4.60;;;;;;;;;;5044836;28;20049;-77
2023/01/10 06:19:15;;;;;;;15.85;6.28;;;;;;;;;;5050174;28;20094;-77
2023/01/10 06:21:41;;;;;;;20.70;7.10;;;;;;;;;;5042684;28;20044;-77
2023/01/10 06:24:07;;;;;;;15.13;5.25;;;;;;;;;;5043573;28;20519;-77
2023/01/10 06:26:33;;;;;;;13.00;4.93;;;;;;;;;;5041016;28;20037;-77
2023/01/10 06:28:59;;;;;;;11.55;5.05;;;;;;;;;;5024816;28;20033;-76
2023/01/10 06:31:26;;;;;;;13.20;3.22;;;;;;;;;;5050123;28;20597;-77
2023/01/10 06:33:52;;;;;;;10.48;3.42;;;;;;;;;;5045204;28;20061;-76
2023/01/10 06:36:19;;;;;;;6.22;2.13;;;;;;;;;;5049241;28;20060;-77
2023/01/10 06:38:45;;;;;;;9.70;2.60;;;;;;;;;;5041511;28;20063;-77
2023/01/10 06:41:14;;;;;;;13.40;2.95;;;;;;;;;;5049620;28;20029;-77
2023/01/10 06:43:40;;;;;;;16.13;3.45;;;;;;;;;;5037513;28;20113;-77
2023/01/10 06:46:08;;;;;;;6.20;2.58;;;;;;;;;;5047668;28;20048;-77
2023/01/10 06:48:34;;;;;;;10.75;3.47;;;;;;;;;;5038919;28;20069;-77
2023/01/10 06:51:00;;;;;;;10.57;3.70;;;;;;;;;;5045565;28;20120;-77
2023/01/10 06:53:26;;;;;;;25.83;8.13;;;;;;;;;;5038150;28;20109;-77
2023/01/10 06:55:54;;;;;;;17.73;7.28;;;;;;;;;;5040130;28;20037;-78
2023/01/10 06:58:20;;;;;;;18.33;6.68;;;;;;;;;;5042412;28;20025;-77
2023/01/10 07:00:46;;;;;;;13.13;5.15;;;;;;;;;;5049055;28;20036;-77
2023/01/10 07:03:13;;;;;;;14.00;4.43;;;;;;;;;;5040195;28;20529;-77
2023/01/10 07:05:39;;;;;;;9.55;3.65;;;;;;;;;;5040424;28;20033;-77
2023/01/10 07:08:05;;;;;;;12.90;4.15;;;;;;;;;;5026392;28;20086;-77
2023/01/10 07:10:31;;;;;;;10.77;3.95;;;;;;;;;;5043894;28;20036;-77
2023/01/10 07:12:58;;;;;;;14.88;4.68;;;;;;;;;;5037115;28;20037;-77
2023/01/10 07:15:24;;;;;;;14.65;5.05;;;;;;;;;;5044639;28;20071;-77
2023/01/10 07:17:50;;;;;;;14.57;5.85;;;;;;;;;;5039847;28;20219;-78
2023/01/10 07:20:16;;;;;;;14.60;6.55;;;;;;;;;;5047726;28;20515;-77
2023/01/10 07:22:42;;;;;;;21.05;9.25;;;;;;;;;;5041098;28;20037;-77
2023/01/10 07:25:08;;;;;;;18.17;7.22;;;;;;;;;;5048693;28;20091;-77
2023/01/10 07:27:34;;;;;;;17.52;7.18;;;;;;;;;;5038689;28;20034;-77
2023/01/10 07:30:00;;;;;;;17.50;7.25;;;;;;;;;;5042456;28;20036;-77
2023/01/10 07:32:26;;;;;;;16.75;6.72;;;;;;;;;;5049219;28;20072;-77
2023/01/10 07:34:52;;;;;;;16.52;7.65;;;;;;;;;;5020275;28;20061;-77
2023/01/10 07:37:18;;;;;;;16.48;6.07;;;;;;;;;;5044743;28;20041;-77
2023/01/10 07:39:44;;;;;;;17.52;7.15;;;;;;;;;;5042714;28;20033;-78
2023/01/10 07:42:11;;;;;;;14.20;6.70;;;;;;;;;;5048950;28;20041;-77
2023/01/10 07:44:37;;;;;;;14.95;7.65;;;;;;;;;;5046394;28;20025;-77
2023/01/10 07:47:03;;;;;;;20.33;8.43;;;;;;;;;;5044430;28;20032;-77
2023/01/10 07:49:29;;;;;;;24.70;10.20;;;;;;;;;;5043666;28;20032;-77
2023/01/10 07:51:55;;;;;;;25.20;13.10;;;;;;;;;;5026741;28;20507;-77
2023/01/10 07:54:21;;;;;;;31.48;15.35;;;;;;;;;;5042544;28;20029;-77
2023/01/10 07:56:47;;;;;;;30.33;12.65;;;;;;;;;;5047352;28;20083;-77
2023/01/10 07:59:13;;;;;;;25.75;12.77;;;;;;;;;;5046391;28;20638;-77
2023/01/10 08:01:39;;;;;;;23.00;10.05;;;;;;;;;;5024950;28;20124;-78
2023/01/10 08:04:05;;;;;;;25.95;12.20;;;;;;;;;;5036068;28;20037;-77
2023/01/10 08:06:32;;;;;;;28.10;14.23;;;;;;;;;;5042463;28;20041;-77
2023/01/10 08:08:58;;;;;;;32.17;16.42;;;;;;;;;;5047597;28;20026;-77
2023/01/10 08:11:23;;;;;;;24.35;12.15;;;;;;;;;;5044081;28;20046;-78
2023/01/10 08:13:49;;;;;;;22.67;11.82;;;;;;;;;;5046289;28;20476;-77
2023/01/10 08:16:16;;;;;;;27.30;10.75;;;;;;;;;;5048987;28;20053;-77
2023/01/10 08:18:42;;;;;;;21.80;11.00;;;;;;;;;;5047764;28;20445;-77
2023/01/10 08:21:08;;;;;;;13.43;7.68;;;;;;;;;;5028346;28;20120;-77
2023/01/10 08:23:35;;;;;;;19.92;9.40;;;;;;;;;;5040034;28;20053;-77
2023/01/10 08:26:01;;;;;;;18.67;7.88;;;;;;;;;;5048878;28;20036;-78
2023/01/10 08:28:27;;;;;;;17.83;8.75;;;;;;;;;;5039197;28;20040;-77
2023/01/10 08:30:54;;;;;;;19.52;9.48;;;;;;;;;;5047819;28;20112;-77
2023/01/10 08:33:24;;;;;;;20.92;10.35;;;;;;;;;;5040179;28;20123;-77
2023/01/10 08:35:50;;;;;;;20.95;10.40;;;;;;;;;;5043265;28;20087;-78
2023/01/10 08:38:16;;;;;;;28.65;14.18;;;;;;;;;;5046453;28;20029;-78
2023/01/10 08:40:42;;;;;;;23.75;12.45;;;;;;;;;;5044371;28;20037;-77
2023/01/10 08:43:12;;;;;;;27.40;13.45;;;;;;;;;;5045209;28;20029;-77
2023/01/10 08:45:38;;;;;;;23.30;13.23;;;;;;;;;;5038664;28;20071;-77
2023/01/10 08:48:05;;;;;;;29.50;14.02;;;;;;;;;;5037720;28;20030;-77
2023/01/10 08:50:31;;;;;;;25.55;12.23;;;;;;;;;;5047078;28;20036;-77
2023/01/10 08:52:58;;;;;;;28.48;11.13;;;;;;;;;;5044091;28;20033;-77
2023/01/10 08:55:24;;;;;;;22.33;11.38;;;;;;;;;;5040123;28;20128;-78
2023/01/10 08:57:50;;;;;;;22.67;10.82;;;;;;;;;;5034264;28;20037;-78
2023/01/10 09:00:17;;;;;;;23.50;10.73;;;;;;;;;;5043553;28;20033;-77
2023/01/10 09:02:43;;;;;;;34.28;11.77;;;;;;;;;;5046335;28;20025;-77
2023/01/10 09:05:09;;;;;;;23.80;10.77;;;;;;;;;;5038493;28;20045;-77
2023/01/10 09:07:35;;;;;;;24.42;10.95;;;;;;;;;;5048594;28;20029;-77
2023/01/10 09:10:01;;;;;;;20.10;8.38;;;;;;;;;;5043956;28;20488;-77
2023/01/10 09:15:12;;;;;;;17.95;7.28;;;;;;;;;;5043999;28;20060;-77
2023/01/10 09:17:38;;;;;;;24.33;9.18;;;;;;;;;;5051810;28;20029;-77
2023/01/10 09:20:08;;;;;;;29.00;13.70;;;;;;;;;;5048432;28;20037;-77
2023/01/10 09:22:34;;;;;;;35.40;18.27;;;;;;;;;;5048412;28;20047;-77
2023/01/10 09:25:00;;;;;;;33.35;16.38;;;;;;;;;;5044687;28;20392;-77
2023/01/10 09:27:26;;;;;;;33.53;15.45;;;;;;;;;;5045330;28;20044;-77
2023/01/10 09:29:52;;;;;;;33.25;15.68;;;;;;;;;;5049120;28;20033;-77
2023/01/10 09:32:18;;;;;;;25.48;12.85;;;;;;;;;;5040994;28;20038;-77
2023/01/10 09:34:44;;;;;;;27.48;13.60;;;;;;;;;;5035288;28;20040;-77
2023/01/10 09:37:10;;;;;;;28.83;14.50;;;;;;;;;;5046868;28;20029;-77
2023/01/10 09:39:36;;;;;;;28.83;12.65;;;;;;;;;;5038593;28;20029;-77
2023/01/10 09:42:12;;;;;;;33.45;14.43;;;;;;;;;;5032706;28;20116;-77
2023/01/10 09:44:44;;;;;;;46.38;20.80;;;;;;;;;;5032077;28;20026;-77
2023/01/10 09:47:16;;;;;;;46.92;22.27;;;;;;;;;;5048754;28;20029;-77
2023/01/10 09:49:42;;;;;;;58.95;28.02;;;;;;;;;;5045859;28;20058;-77
2023/01/10 09:52:12;;;;;;;46.35;22.83;;;;;;;;;;5045577;28;20422;-77
2023/01/10 09:54:41;;;;;;;36.58;17.65;;;;;;;;;;5049274;28;20029;-77
2023/01/10 09:57:10;;;;;;;30.33;15.15;;;;;;;;;;5048699;28;20025;-77
2023/01/10 09:59:38;;;;;;;26.80;13.02;;;;;;;;;;5043308;28;20125;-77
2023/01/10 10:02:06;;;;;;;25.58;10.95;;;;;;;;;;5030623;28;20025;-77
2023/01/10 10:04:36;;;;;;;29.75;11.00;;;;;;;;;;5043617;28;20033;-77
2023/01/10 10:07:03;;;;;;;23.73;9.77;;;;;;;;;;5047435;28;20334;-77
2023/01/10 10:09:30;;;;;;;29.13;11.50;;;;;;;;;;5044988;28;20442;-77
2023/01/10 10:12:02;;;;;;;33.47;13.13;;;;;;;;;;5052137;28;20033;-77
2023/01/10 10:14:33;;;;;;;24.92;12.25;;;;;;;;;;5044764;28;20040;-77
2023/01/10 10:16:59;;;;;;;28.92;13.43;;;;;;;;;;5044839;28;20033;-77
2023/01/10 10:19:40;;;;;;;32.45;13.02;;;;;;;;;;5042039;28;20074;-77
2023/01/10 10:22:19;;;;;;;24.02;10.80;;;;;;;;;;5030737;28;20131;-77
2023/01/10 10:25:03;;;;;;;26.27;14.60;;;;;;;;;;5048505;28;20021;-77
2023/01/10 10:27:49;;;;;;;23.38;9.95;;;;;;;;;;5047799;28;20034;-77
2023/01/10 10:30:22;;;;;;;24.15;11.00;;;;;;;;;;5006564;28;20041;-77
2023/01/10 10:33:04;;;;;;;33.60;15.02;;;;;;;;;;5044280;28;20530;-77
2023/01/10 10:35:44;;;;;;;36.33;15.98;;;;;;;;;;5041790;28;20483;-78
2023/01/10 10:38:19;;;;;;;28.85;13.80;;;;;;;;;;5045485;28;20111;-77
2023/01/10 10:40:46;;;;;;;27.98;12.52;;;;;;;;;;5049477;28;20078;-77
2023/01/10 10:43:20;;;;;;;16.90;6.90;;;;;;;;;;5048874;28;20045;-77
2023/01/10 10:45:57;;;;;;;12.93;5.20;;;;;;;;;;5042774;28;20032;-77
2023/01/10 10:48:33;;;;;;;12.30;4.30;;;;;;;;;;5043273;28;20120;-77
2023/01/10 10:50:59;;;;;;;13.85;3.72;;;;;;;;;;5042788;28;20061;-77
2023/01/10 10:53:25;;;;;;;17.42;5.90;;;;;;;;;;5045675;28;20072;-77
2023/01/10 10:55:52;;;;;;;18.45;5.20;;;;;;;;;;5040119;28;20029;-77
2023/01/10 10:58:18;;;;;;;28.48;10.60;;;;;;;;;;5023089;28;20040;-78
2023/01/10 11:00:45;;;;;;;25.15;8.02;;;;;;;;;;5048207;28;20039;-78
2023/01/10 11:03:31;;;;;;;19.83;5.18;;;;;;;;;;5043511;28;20033;-77
2023/01/10 11:05:59;;;;;;;15.40;4.95;;;;;;;;;;5041638;28;20033;-77
2023/01/10 11:08:26;;;;;;;14.52;4.70;;;;;;;;;;5040268;28;20127;-77
2023/01/10 11:10:53;;;;;;;26.35;11.75;;;;;;;;;;5046251;28;20032;-77
2023/01/10 11:13:26;;;;;;;22.35;9.40;;;;;;;;;;5047029;28;20498;-78
2023/01/10 11:15:52;;;;;;;25.73;10.35;;;;;;;;;;5041746;28;20044;-77
2023/01/10 11:18:24;;;;;;;22.27;9.52;;;;;;;;;;5041953;28;20029;-77
2023/01/10 11:20:56;;;;;;;12.82;4.75;;;;;;;;;;5044635;28;20025;-77
2023/01/10 11:23:28;;;;;;;11.25;3.67;;;;;;;;;;5044026;28;20033;-77
2023/01/10 11:25:55;;;;;;;10.07;3.45;;;;;;;;;;5037814;28;20132;-77
2023/01/10 11:28:22;;;;;;;8.70;2.03;;;;;;;;;;5047481;28;20052;-77
2023/01/10 11:30:50;;;;;;;12.20;2.08;;;;;;;;;;5047258;28;20026;-78
2023/01/10 11:33:26;;;;;;;8.82;1.95;;;;;;;;;;5038124;28;20040;-77
2023/01/10 11:36:04;;;;;;;7.35;1.65;;;;;;;;;;5041927;28;20123;-77
2023/01/10 11:38:31;;;;;;;7.80;1.95;;;;;;;;;;5042713;28;20037;-77
2023/01/10 11:40:59;;;;;;;7.70;1.90;;;;;;;;;;5046087;28;20648;-77
2023/01/10 11:43:25;;;;;;;6.70;2.10;;;;;;;;;;5046494;28;20458;-77
2023/01/10 11:45:56;;;;;;;8.70;1.85;;;;;;;;;;5049522;28;20535;-77
2023/01/10 11:48:23;;;;;;;12.30;3.80;;;;;;;;;;5043260;28;20043;-78
2023/01/10 11:50:50;;;;;;;14.88;6.97;;;;;;;;;;5040117;28;20380;-77
2023/01/10 11:53:35;;;;;;;9.07;3.25;;;;;;;;;;5042808;28;20067;-77
2023/01/10 11:56:01;;;;;;;6.10;1.50;;;;;;;;;;5044915;28;20029;-78
2023/01/10 11:58:32;;;;;;;7.35;1.15;;;;;;;;;;5044819;28;20025;-78
2023/01/10 12:00:58;;;;;;;5.22;0.80;;;;;;;;;;5024324;28;20064;-75
2023/01/10 12:03:28;;;;;;;3.25;0.90;;;;;;;;;;5041406;28;20048;-77
2023/01/10 12:05:59;;;;;;;4.63;1.00;;;;;;;;;;5035865;28;20033;-78
2023/01/10 12:08:25;;;;;;;6.43;2.07;;;;;;;;;;5042430;28;20032;-77
2023/01/10 12:11:01;;;;;;;5.13;1.00;;;;;;;;;;5044078;28;20041;-78
2023/01/10 12:13:29;;;;;;;4.03;0.70;;;;;;;;;;5039715;28;20051;-78
2023/01/10 12:16:34;;;;;;;6.05;1.20;;;;;;;;;;5041265;28;20046;-78
2023/01/10 12:19:02;;;;;;;3.22;0.90;;;;;;;;;;4945266;28;20118;-75
2023/01/10 12:21:35;;;;;;;5.10;0.90;;;;;;;;;;4945344;29;20843;-78
2023/01/10 12:24:04;;;;;;;4.20;0.70;;;;;;;;;;4996154;28;20840;-77
2023/01/10 12:26:31;;;;;;;6.85;1.13;;;;;;;;;;5049288;28;20044;-77
2023/01/10 12:28:59;;;;;;;6.15;0.70;;;;;;;;;;5038080;28;20104;-77
2023/01/10 12:31:25;;;;;;;5.45;0.80;;;;;;;;;;5032851;28;20068;-77
2023/01/10 12:33:55;;;;;;;7.30;1.60;;;;;;;;;;5042065;28;20357;-77
2023/01/10 12:36:24;;;;;;;5.45;1.80;;;;;;;;;;5047575;28;20064;-77
2023/01/10 12:39:12;;;;;;;8.57;2.30;;;;;;;;;;5042608;28;20064;-78
2023/01/10 12:44:28;;;;;;;5.75;1.52;;;;;;;;;;5042984;28;20102;-77
2023/01/10 12:47:05;;;;;;;6.97;1.40;;;;;;;;;;5049091;28;20108;-77
2023/01/10 12:49:33;;;;;;;5.47;1.52;;;;;;;;;;5042484;28;20037;-77
2023/01/10 12:52:02;;;;;;;7.68;2.50;;;;;;;;;;5051439;28;20118;-77
2023/01/10 12:54:29;;;;;;;7.80;2.30;;;;;;;;;;5046098;28;20033;-77
2023/01/10 12:56:58;;;;;;;9.73;3.88;;;;;;;;;;5054938;28;20032;-77
2023/01/10 12:59:37;;;;;;;8.50;2.22;;;;;;;;;;5045704;28;20096;-77
2023/01/10 13:02:05;;;;;;;10.25;2.58;;;;;;;;;;5049254;28;20152;-77
2023/01/10 13:04:33;;;;;;;12.52;4.60;;;;;;;;;;5038839;28;20106;-77
2023/01/10 13:07:00;;;;;;;9.23;4.45;;;;;;;;;;5032743;28;20743;-77
2023/01/10 13:09:27;;;;;;;7.85;2.35;;;;;;;;;;5044936;28;20131;-77
2023/01/10 13:11:56;;;;;;;9.38;4.25;;;;;;;;;;5046207;28;20044;-77
2023/01/10 13:14:28;;;;;;;5.45;2.35;;;;;;;;;;5050989;28;20032;-77
2023/01/10 13:16:57;;;;;;;3.53;0.77;;;;;;;;;;5039327;28;20041;-77
2023/01/10 13:19:25;;;;;;;1.75;0.43;;;;;;;;;;5052214;28;20071;-77
2023/01/10 13:22:11;;;;;;;4.20;0.90;;;;;;;;;;5044626;28;20029;-77
2023/01/10 13:24:37;;;;;;;2.50;0.85;;;;;;;;;;5049821;28;20051;-77
2023/01/10 13:27:03;;;;;;;3.28;0.85;;;;;;;;;;5050159;28;20038;-77
2023/01/10 13:29:31;;;;;;;5.43;1.35;;;;;;;;;;5040430;28;20656;-77
2023/01/10 13:32:00;;;;;;;6.15;1.30;;;;;;;;;;5049654;28;20036;-77
2023/01/10 13:34:27;;;;;;;3.92;0.80;;;;;;;;;;5043013;28;20029;-77
2023/01/10 13:37:19;;;;;;;4.32;0.73;;;;;;;;;;5041503;28;20072;-77
2023/01/10 13:39:51;;;;;;;4.25;1.02;;;;;;;;;;5043894;28;20025;-77
2023/01/10 13:45:16;;;;;;;4.82;1.13;;;;;;;;;;5048493;28;20048;-77
2023/01/10 13:47:42;;;;;;;7.65;0.90;;;;;;;;;;5048063;28;20037;-77
2023/01/10 13:50:24;;;;;;;6.13;0.90;;;;;;;;;;5051299;28;20037;-77
2023/01/10 13:52:54;;;;;;;5.70;1.20;;;;;;;;;;5047065;28;20052;-77
2023/01/10 13:55:26;;;;;;;7.88;2.28;;;;;;;;;;5041010;28;20041;-75
2023/01/10 13:57:57;;;;;;;6.72;2.22;;;;;;;;;;5052355;28;20020;-77
2023/01/10 14:03:30;;;;;;;4.72;1.10;;;;;;;;;;5046122;28;20071;-77
2023/01/10 14:05:56;;;;;;;5.80;0.80;;;;;;;;;;5048740;28;20462;-77
2023/01/10 14:08:22;;;;;;;4.35;0.85;;;;;;;;;;5052024;28;20029;-77
2023/01/10 14:11:03;;;;;;;4.40;1.42;;;;;;;;;;5031150;28;20029;-77
2023/01/10 14:13:29;;;;;;;5.33;2.07;;;;;;;;;;5048382;28;20036;-75
2023/01/10 14:15:56;;;;;;;8.25;2.72;;;;;;;;;;5046820;28;20299;-77
2023/01/10 14:18:23;;;;;;;7.85;2.20;;;;;;;;;;5045283;28;20040;-77
2023/01/10 14:20:58;;;;;;;8.85;3.72;;;;;;;;;;5051990;28;20021;-77
2023/01/10 14:23:27;;;;;;;7.82;1.95;;;;;;;;;;5047423;28;20033;-77
2023/01/10 14:25:55;;;;;;;4.85;1.38;;;;;;;;;;5045427;28;20044;-77
2023/01/10 14:28:39;;;;;;;10.45;4.40;;;;;;;;;;5039687;28;20476;-77
2023/01/10 14:31:22;;;;;;;13.85;5.68;;;;;;;;;;5045805;28;20034;-77
2023/01/10 14:33:49;;;;;;;7.85;1.90;;;;;;;;;;5032959;28;20032;-77
2023/01/10 14:36:16;;;;;;;3.35;1.17;;;;;;;;;;5047135;28;20040;-77
2023/01/10 14:38:44;;;;;;;6.53;1.55;;;;;;;;;;5044524;28;20033;-77
2023/01/10 14:41:10;;;;;;;5.55;2.05;;;;;;;;;;5046346;28;20404;-77
2023/01/10 14:43:44;;;;;;;6.15;1.48;;;;;;;;;;5051531;28;20029;-77
2023/01/10 14:46:17;;;;;;;5.22;1.35;;;;;;;;;;5045759;28;20511;-77
2023/01/10 14:48:47;;;;;;;3.72;0.90;;;;;;;;;;5045531;28;20047;-78
2023/01/10 14:51:24;;;;;;;5.03;1.08;;;;;;;;;;5049585;28;20131;-77
2023/01/10 14:54:09;;;;;;;4.68;0.60;;;;;;;;;;5048928;28;20029;-77
2023/01/10 14:56:37;;;;;;;4.82;1.08;;;;;;;;;;5031406;28;20068;-77
2023/01/10 14:59:22;;;;;;;4.97;0.68;;;;;;;;;;5047287;28;20839;-77
2023/01/10 15:01:49;;;;;;;4.65;1.20;;;;;;;;;;5046036;28;20554;-77